sensor_id;sensor_type;location;lat;lon;timestamp;temperature;humidity
77523;SHT31;66637;-29.628;-49.938;2023-05-27T00:00:07;22.05;82.37
77523;SHT31;66637;-29.628;-49.938;2023-05-27T00:03:02;22.04;82.28
77523;SHT31;66637;-29.628;-49.938;2023-05-27T00:05:53;21.97;81.98
77523;SHT31;66637;-29.628;-49.938;2023-05-27T00:08:54;21.90;81.87
77523;SHT31;66637;-29.628;-49.938;2023-05-27T00:12:09;21.90;81.98
77523;SHT31;66637;-29.628;-49.938;2023-05-27T00:14:52;21.81;81.44
77523;SHT31;66637;-29.628;-49.938;2023-05-27T00:17:42;21.68;81.59
77523;SHT31;66637;-29.628;-49.938;2023-05-27T00:20:25;21.60;81.64
77523;SHT31;66637;-29.628;-49.938;2023-05-27T00:23:44;21.53;81.71
77523;SHT31;66637;-29.628;-49.938;2023-05-27T00:26:46;21.47;81.74
77523;SHT31;66637;-29.628;-49.938;2023-05-27T00:29:52;21.47;81.27
77523;SHT31;66637;-29.628;-49.938;2023-05-27T00:32:51;21.44;81.82
77523;SHT31;66637;-29.628;-49.938;2023-05-27T00:35:35;21.37;81.12
77523;SHT31;66637;-29.628;-49.938;2023-05-27T00:38:09;21.31;81.13
77523;SHT31;66637;-29.628;-49.938;2023-05-27T00:44:30;21.24;81.19
77523;SHT31;66637;-29.628;-49.938;2023-05-27T00:47:01;21.24;81.22
77523;SHT31;66637;-29.628;-49.938;2023-05-27T00:49:34;21.23;81.00
77523;SHT31;66637;-29.628;-49.938;2023-05-27T00:52:08;21.22;80.97
77523;SHT31;66637;-29.628;-49.938;2023-05-27T00:54:42;21.26;81.13
77523;SHT31;66637;-29.628;-49.938;2023-05-27T00:57:13;21.27;80.58
77523;SHT31;66637;-29.628;-49.938;2023-05-27T00:59:46;21.27;80.25
77523;SHT31;66637;-29.628;-49.938;2023-05-27T01:02:21;21.37;80.28
77523;SHT31;66637;-29.628;-49.938;2023-05-27T01:04:54;21.29;80.25
77523;SHT31;66637;-29.628;-49.938;2023-05-27T01:10:43;21.44;80.13
77523;SHT31;66637;-29.628;-49.938;2023-05-27T01:13:43;21.38;79.82
77523;SHT31;66637;-29.628;-49.938;2023-05-27T01:16:17;21.26;79.91
77523;SHT31;66637;-29.628;-49.938;2023-05-27T01:18:53;21.26;80.35
77523;SHT31;66637;-29.628;-49.938;2023-05-27T01:21:24;21.24;80.53
77523;SHT31;66637;-29.628;-49.938;2023-05-27T01:24:03;21.20;80.17
77523;SHT31;66637;-29.628;-49.938;2023-05-27T01:26:34;21.11;80.72
77523;SHT31;66637;-29.628;-49.938;2023-05-27T01:29:05;21.03;80.43
77523;SHT31;66637;-29.628;-49.938;2023-05-27T01:32:06;21.09;80.82
77523;SHT31;66637;-29.628;-49.938;2023-05-27T01:34:59;21.03;80.46
77523;SHT31;66637;-29.628;-49.938;2023-05-27T01:40:27;20.93;80.55
77523;SHT31;66637;-29.628;-49.938;2023-05-27T01:43:06;20.95;80.65
77523;SHT31;66637;-29.628;-49.938;2023-05-27T01:46:20;20.96;80.50
77523;SHT31;66637;-29.628;-49.938;2023-05-27T01:49:39;21.06;80.41
77523;SHT31;66637;-29.628;-49.938;2023-05-27T01:52:24;21.06;80.27
77523;SHT31;66637;-29.628;-49.938;2023-05-27T01:55:10;21.03;79.82
77523;SHT31;66637;-29.628;-49.938;2023-05-27T01:58:03;21.07;80.20
77523;SHT31;66637;-29.628;-49.938;2023-05-27T02:01:23;21.11;80.31
77523;SHT31;66637;-29.628;-49.938;2023-05-27T02:04:34;21.17;80.08
77523;SHT31;66637;-29.628;-49.938;2023-05-27T02:07:06;21.31;79.95
77523;SHT31;66637;-29.628;-49.938;2023-05-27T02:09:37;21.20;79.54
77523;SHT31;66637;-29.628;-49.938;2023-05-27T02:12:08;21.24;79.60
77523;SHT31;66637;-29.628;-49.938;2023-05-27T02:14:39;21.16;79.40
77523;SHT31;66637;-29.628;-49.938;2023-05-27T02:21:36;21.37;80.87
77523;SHT31;66637;-29.628;-49.938;2023-05-27T02:24:17;21.41;80.52
77523;SHT31;66637;-29.628;-49.938;2023-05-27T02:27:25;21.43;80.91
77523;SHT31;66637;-29.628;-49.938;2023-05-27T02:30:12;21.43;80.66
77523;SHT31;66637;-29.628;-49.938;2023-05-27T02:32:56;21.44;80.58
77523;SHT31;66637;-29.628;-49.938;2023-05-27T02:36:13;21.44;80.33
77523;SHT31;66637;-29.628;-49.938;2023-05-27T02:39:09;21.44;79.89
77523;SHT31;66637;-29.628;-49.938;2023-05-27T02:41:56;21.46;80.22
77523;SHT31;66637;-29.628;-49.938;2023-05-27T02:44:37;21.47;80.90
77523;SHT31;66637;-29.628;-49.938;2023-05-27T02:47:22;21.51;81.12
77523;SHT31;66637;-29.628;-49.938;2023-05-27T02:50:06;21.55;80.36
77523;SHT31;66637;-29.628;-49.938;2023-05-27T02:53:07;21.62;80.21
77523;SHT31;66637;-29.628;-49.938;2023-05-27T02:55:45;21.61;79.92
77523;SHT31;66637;-29.628;-49.938;2023-05-27T03:02:47;21.70;79.55
77523;SHT31;66637;-29.628;-49.938;2023-05-27T03:05:50;21.71;79.34
77523;SHT31;66637;-29.628;-49.938;2023-05-27T03:08:22;21.62;79.88
77523;SHT31;66637;-29.628;-49.938;2023-05-27T03:11:05;21.67;79.94
77523;SHT31;66637;-29.628;-49.938;2023-05-27T03:14:01;21.68;79.91
77523;SHT31;66637;-29.628;-49.938;2023-05-27T03:17:04;21.73;79.67
77523;SHT31;66637;-29.628;-49.938;2023-05-27T03:19:57;21.68;79.56
77523;SHT31;66637;-29.628;-49.938;2023-05-27T03:22:47;21.75;79.24
77523;SHT31;66637;-29.628;-49.938;2023-05-27T03:25:31;21.78;79.39
77523;SHT31;66637;-29.628;-49.938;2023-05-27T03:29:18;21.77;79.52
77523;SHT31;66637;-29.628;-49.938;2023-05-27T03:32:39;21.77;79.42
77523;SHT31;66637;-29.628;-49.938;2023-05-27T03:35:42;21.75;79.44
77523;SHT31;66637;-29.628;-49.938;2023-05-27T03:38:29;21.75;79.72
77523;SHT31;66637;-29.628;-49.938;2023-05-27T03:41:44;21.70;79.55
77523;SHT31;66637;-29.628;-49.938;2023-05-27T03:44:50;21.71;79.65
77523;SHT31;66637;-29.628;-49.938;2023-05-27T03:47:56;21.68;79.65
77523;SHT31;66637;-29.628;-49.938;2023-05-27T03:51:23;21.62;79.68
77523;SHT31;66637;-29.628;-49.938;2023-05-27T03:54:14;21.65;79.46
77523;SHT31;66637;-29.628;-49.938;2023-05-27T03:56:46;21.61;79.28
77523;SHT31;66637;-29.628;-49.938;2023-05-27T03:59:18;21.61;79.03
77523;SHT31;66637;-29.628;-49.938;2023-05-27T04:01:49;21.61;79.38
77523;SHT31;66637;-29.628;-49.938;2023-05-27T04:04:20;21.62;77.59
77523;SHT31;66637;-29.628;-49.938;2023-05-27T04:06:53;21.65;77.56
77523;SHT31;66637;-29.628;-49.938;2023-05-27T04:09:25;21.74;77.69
77523;SHT31;66637;-29.628;-49.938;2023-05-27T04:11:56;21.78;77.40
77523;SHT31;66637;-29.628;-49.938;2023-05-27T04:14:27;21.90;76.32
77523;SHT31;66637;-29.628;-49.938;2023-05-27T04:16:58;22.26;72.84
77523;SHT31;66637;-29.628;-49.938;2023-05-27T04:19:28;22.57;70.21
77523;SHT31;66637;-29.628;-49.938;2023-05-27T04:22:25;22.72;70.93
77523;SHT31;66637;-29.628;-49.938;2023-05-27T04:24:55;22.69;70.48
77523;SHT31;66637;-29.628;-49.938;2023-05-27T04:27:27;22.72;70.05
77523;SHT31;66637;-29.628;-49.938;2023-05-27T04:30:00;22.76;70.31
77523;SHT31;66637;-29.628;-49.938;2023-05-27T04:32:57;22.74;71.21
77523;SHT31;66637;-29.628;-49.938;2023-05-27T04:35:29;22.63;71.32
77523;SHT31;66637;-29.628;-49.938;2023-05-27T04:38:03;22.59;72.07
77523;SHT31;66637;-29.628;-49.938;2023-05-27T04:40:44;22.45;72.65
77523;SHT31;66637;-29.628;-49.938;2023-05-27T04:43:33;22.38;73.49
77523;SHT31;66637;-29.628;-49.938;2023-05-27T04:46:16;22.31;73.92
77523;SHT31;66637;-29.628;-49.938;2023-05-27T04:48:56;22.23;74.41
77523;SHT31;66637;-29.628;-49.938;2023-05-27T04:51:55;22.28;74.57
77523;SHT31;66637;-29.628;-49.938;2023-05-27T04:55:12;22.32;73.65
77523;SHT31;66637;-29.628;-49.938;2023-05-27T04:58:07;22.35;73.57
77523;SHT31;66637;-29.628;-49.938;2023-05-27T05:04:42;22.42;73.43
77523;SHT31;66637;-29.628;-49.938;2023-05-27T05:07:41;22.35;73.62
77523;SHT31;66637;-29.628;-49.938;2023-05-27T05:10:31;22.29;73.61
77523;SHT31;66637;-29.628;-49.938;2023-05-27T05:13:44;22.21;73.84
77523;SHT31;66637;-29.628;-49.938;2023-05-27T05:16:30;22.18;73.86
77523;SHT31;66637;-29.628;-49.938;2023-05-27T05:19:02;22.18;73.81
77523;SHT31;66637;-29.628;-49.938;2023-05-27T05:21:36;22.18;73.82
77523;SHT31;66637;-29.628;-49.938;2023-05-27T05:24:12;22.16;73.70
77523;SHT31;66637;-29.628;-49.938;2023-05-27T05:27:03;22.22;73.63
77523;SHT31;66637;-29.628;-49.938;2023-05-27T05:30:23;22.25;73.53
77523;SHT31;66637;-29.628;-49.938;2023-05-27T05:33:33;22.26;73.59
77523;SHT31;66637;-29.628;-49.938;2023-05-27T05:36:49;22.28;73.41
77523;SHT31;66637;-29.628;-49.938;2023-05-27T05:39:32;22.31;73.16
77523;SHT31;66637;-29.628;-49.938;2023-05-27T05:42:53;22.43;72.93
77523;SHT31;66637;-29.628;-49.938;2023-05-27T05:45:40;22.41;72.81
77523;SHT31;66637;-29.628;-49.938;2023-05-27T05:48:11;22.46;72.76
77523;SHT31;66637;-29.628;-49.938;2023-05-27T05:50:44;22.45;72.62
77523;SHT31;66637;-29.628;-49.938;2023-05-27T05:53:16;22.45;72.60
77523;SHT31;66637;-29.628;-49.938;2023-05-27T05:56:06;22.49;72.48
77523;SHT31;66637;-29.628;-49.938;2023-05-27T05:59:01;22.46;72.57
77523;SHT31;66637;-29.628;-49.938;2023-05-27T06:02:13;22.45;72.80
77523;SHT31;66637;-29.628;-49.938;2023-05-27T06:05:45;22.42;72.90
77523;SHT31;66637;-29.628;-49.938;2023-05-27T06:08:57;22.43;73.22
77523;SHT31;66637;-29.628;-49.938;2023-05-27T06:12:03;22.41;73.09
77523;SHT31;66637;-29.628;-49.938;2023-05-27T06:15:26;22.46;73.10
77523;SHT31;66637;-29.628;-49.938;2023-05-27T06:18:40;22.43;72.89
77523;SHT31;66637;-29.628;-49.938;2023-05-27T06:21:22;22.49;72.58
77523;SHT31;66637;-29.628;-49.938;2023-05-27T06:24:51;22.49;72.74
77523;SHT31;66637;-29.628;-49.938;2023-05-27T06:27:50;22.46;73.03
77523;SHT31;66637;-29.628;-49.938;2023-05-27T06:30:41;22.38;73.11
77523;SHT31;66637;-29.628;-49.938;2023-05-27T06:34:28;22.28;75.64
77523;SHT31;66637;-29.628;-49.938;2023-05-27T06:37:37;22.18;76.18
77523;SHT31;66637;-29.628;-49.938;2023-05-27T06:40:23;22.13;77.05
77523;SHT31;66637;-29.628;-49.938;2023-05-27T06:43:25;22.05;77.26
77523;SHT31;66637;-29.628;-49.938;2023-05-27T06:46:40;22.12;76.26
77523;SHT31;66637;-29.628;-49.938;2023-05-27T06:49:32;22.13;75.77
77523;SHT31;66637;-29.628;-49.938;2023-05-27T06:52:13;22.18;75.43
77523;SHT31;66637;-29.628;-49.938;2023-05-27T06:55:29;22.21;74.84
77523;SHT31;66637;-29.628;-49.938;2023-05-27T06:58:40;22.32;74.36
77523;SHT31;66637;-29.628;-49.938;2023-05-27T07:01:16;22.33;74.18
77523;SHT31;66637;-29.628;-49.938;2023-05-27T07:03:54;22.31;74.07
77523;SHT31;66637;-29.628;-49.938;2023-05-27T07:06:40;22.26;74.14
77523;SHT31;66637;-29.628;-49.938;2023-05-27T07:09:12;22.22;74.16
77523;SHT31;66637;-29.628;-49.938;2023-05-27T07:11:45;22.21;74.26
77523;SHT31;66637;-29.628;-49.938;2023-05-27T07:14:36;22.19;74.38
77523;SHT31;66637;-29.628;-49.938;2023-05-27T07:17:08;22.11;75.31
77523;SHT31;66637;-29.628;-49.938;2023-05-27T07:20:30;22.11;76.18
77523;SHT31;66637;-29.628;-49.938;2023-05-27T07:23:12;22.09;75.97
77523;SHT31;66637;-29.628;-49.938;2023-05-27T07:26:19;22.01;76.23
77523;SHT31;66637;-29.628;-49.938;2023-05-27T07:29:51;22.00;77.09
77523;SHT31;66637;-29.628;-49.938;2023-05-27T07:32:57;22.00;77.47
77523;SHT31;66637;-29.628;-49.938;2023-05-27T07:36:24;21.91;77.92
77523;SHT31;66637;-29.628;-49.938;2023-05-27T07:39:17;21.85;76.82
77523;SHT31;66637;-29.628;-49.938;2023-05-27T07:42:31;21.78;77.05
77523;SHT31;66637;-29.628;-49.938;2023-05-27T07:45:41;21.92;75.87
77523;SHT31;66637;-29.628;-49.938;2023-05-27T07:48:32;22.05;74.27
77523;SHT31;66637;-29.628;-49.938;2023-05-27T07:51:03;22.11;73.99
77523;SHT31;66637;-29.628;-49.938;2023-05-27T07:53:36;22.18;72.61
77523;SHT31;66637;-29.628;-49.938;2023-05-27T07:56:07;22.19;73.81
77523;SHT31;66637;-29.628;-49.938;2023-05-27T07:58:37;22.11;74.18
77523;SHT31;66637;-29.628;-49.938;2023-05-27T08:01:11;22.13;73.69
77523;SHT31;66637;-29.628;-49.938;2023-05-27T08:03:48;22.18;74.79
77523;SHT31;66637;-29.628;-49.938;2023-05-27T08:06:21;22.16;74.44
77523;SHT31;66637;-29.628;-49.938;2023-05-27T08:09:10;22.11;75.16
77523;SHT31;66637;-29.628;-49.938;2023-05-27T08:11:59;22.33;73.79
77523;SHT31;66637;-29.628;-49.938;2023-05-27T08:15:09;22.51;73.77
77523;SHT31;66637;-29.628;-49.938;2023-05-27T08:17:54;22.39;74.58
77523;SHT31;66637;-29.628;-49.938;2023-05-27T08:20:44;22.29;72.66
77523;SHT31;66637;-29.628;-49.938;2023-05-27T08:23:32;22.31;72.38
77523;SHT31;66637;-29.628;-49.938;2023-05-27T08:26:37;22.22;72.85
77523;SHT31;66637;-29.628;-49.938;2023-05-27T08:29:33;22.23;72.49
77523;SHT31;66637;-29.628;-49.938;2023-05-27T08:32:19;22.26;72.16
77523;SHT31;66637;-29.628;-49.938;2023-05-27T08:34:57;22.28;71.99
77523;SHT31;66637;-29.628;-49.938;2023-05-27T08:37:27;22.16;72.74
77523;SHT31;66637;-29.628;-49.938;2023-05-27T08:40:17;22.06;73.91
77523;SHT31;66637;-29.628;-49.938;2023-05-27T08:42:54;22.02;73.70
77523;SHT31;66637;-29.628;-49.938;2023-05-27T08:46:04;22.00;74.65
77523;SHT31;66637;-29.628;-49.938;2023-05-27T08:49:10;21.91;74.87
77523;SHT31;66637;-29.628;-49.938;2023-05-27T08:52:24;21.82;76.01
77523;SHT31;66637;-29.628;-49.938;2023-05-27T08:55:36;21.88;76.67
77523;SHT31;66637;-29.628;-49.938;2023-05-27T08:58:56;22.00;76.60
77523;SHT31;66637;-29.628;-49.938;2023-05-27T09:02:11;22.08;76.21
77523;SHT31;66637;-29.628;-49.938;2023-05-27T09:05:50;22.09;76.10
77523;SHT31;66637;-29.628;-49.938;2023-05-27T09:08:49;22.05;75.74
77523;SHT31;66637;-29.628;-49.938;2023-05-27T09:11:24;22.04;75.63
77523;SHT31;66637;-29.628;-49.938;2023-05-27T09:14:00;22.04;76.13
77523;SHT31;66637;-29.628;-49.938;2023-05-27T09:16:30;22.05;76.66
77523;SHT31;66637;-29.628;-49.938;2023-05-27T09:19:00;22.02;76.49
77523;SHT31;66637;-29.628;-49.938;2023-05-27T09:21:32;22.04;75.74
77523;SHT31;66637;-29.628;-49.938;2023-05-27T09:24:02;22.06;75.46
77523;SHT31;66637;-29.628;-49.938;2023-05-27T09:26:33;22.06;75.50
77523;SHT31;66637;-29.628;-49.938;2023-05-27T09:29:08;22.01;75.56
77523;SHT31;66637;-29.628;-49.938;2023-05-27T09:31:41;22.04;75.38
77523;SHT31;66637;-29.628;-49.938;2023-05-27T09:34:16;22.02;74.94
77523;SHT31;66637;-29.628;-49.938;2023-05-27T09:36:48;21.92;75.55
77523;SHT31;66637;-29.628;-49.938;2023-05-27T09:39:22;21.85;75.55
77523;SHT31;66637;-29.628;-49.938;2023-05-27T09:41:54;21.78;75.95
77523;SHT31;66637;-29.628;-49.938;2023-05-27T09:44:30;21.75;76.02
77523;SHT31;66637;-29.628;-49.938;2023-05-27T09:47:02;21.74;75.87
77523;SHT31;66637;-29.628;-49.938;2023-05-27T09:49:37;21.65;76.52
77523;SHT31;66637;-29.628;-49.938;2023-05-27T09:52:11;21.57;76.58
77523;SHT31;66637;-29.628;-49.938;2023-05-27T09:54:43;21.57;76.71
77523;SHT31;66637;-29.628;-49.938;2023-05-27T09:57:14;21.55;76.88
77523;SHT31;66637;-29.628;-49.938;2023-05-27T09:59:45;21.48;77.16
77523;SHT31;66637;-29.628;-49.938;2023-05-27T10:02:18;21.40;77.49
77523;SHT31;66637;-29.628;-49.938;2023-05-27T10:04:51;21.43;78.68
77523;SHT31;66637;-29.628;-49.938;2023-05-27T10:07:24;21.44;78.90
77523;SHT31;66637;-29.628;-49.938;2023-05-27T10:10:02;21.46;78.29
77523;SHT31;66637;-29.628;-49.938;2023-05-27T10:12:33;21.54;78.59
77523;SHT31;66637;-29.628;-49.938;2023-05-27T10:15:05;21.51;78.61
77523;SHT31;66637;-29.628;-49.938;2023-05-27T10:17:52;21.50;78.98
77523;SHT31;66637;-29.628;-49.938;2023-05-27T10:20:42;21.60;78.91
77523;SHT31;66637;-29.628;-49.938;2023-05-27T10:23:19;21.46;79.42
77523;SHT31;66637;-29.628;-49.938;2023-05-27T10:25:54;21.41;80.60
77523;SHT31;66637;-29.628;-49.938;2023-05-27T10:31:14;21.65;82.25
77523;SHT31;66637;-29.628;-49.938;2023-05-27T10:33:50;21.68;82.61
77523;SHT31;66637;-29.628;-49.938;2023-05-27T10:36:27;21.70;82.70
77523;SHT31;66637;-29.628;-49.938;2023-05-27T10:39:16;21.65;82.39
77523;SHT31;66637;-29.628;-49.938;2023-05-27T10:41:53;21.68;82.51
77523;SHT31;66637;-29.628;-49.938;2023-05-27T10:44:35;21.64;82.68
77523;SHT31;66637;-29.628;-49.938;2023-05-27T10:47:10;21.64;82.56
77523;SHT31;66637;-29.628;-49.938;2023-05-27T10:49:46;21.62;82.99
77523;SHT31;66637;-29.628;-49.938;2023-05-27T10:52:17;21.64;83.35
77523;SHT31;66637;-29.628;-49.938;2023-05-27T10:54:48;21.64;83.59
77523;SHT31;66637;-29.628;-49.938;2023-05-27T10:57:22;21.62;82.66
77523;SHT31;66637;-29.628;-49.938;2023-05-27T10:59:55;21.57;82.42
77523;SHT31;66637;-29.628;-49.938;2023-05-27T11:02:30;21.48;81.59
77523;SHT31;66637;-29.628;-49.938;2023-05-27T11:05:13;21.41;81.67
77523;SHT31;66637;-29.628;-49.938;2023-05-27T11:07:43;21.40;81.72
77523;SHT31;66637;-29.628;-49.938;2023-05-27T11:10:13;21.44;81.70
77523;SHT31;66637;-29.628;-49.938;2023-05-27T11:12:44;21.43;81.85
77523;SHT31;66637;-29.628;-49.938;2023-05-27T11:15:15;21.47;81.93
77523;SHT31;66637;-29.628;-49.938;2023-05-27T11:17:45;21.47;81.30
77523;SHT31;66637;-29.628;-49.938;2023-05-27T11:20:15;21.53;81.76
77523;SHT31;66637;-29.628;-49.938;2023-05-27T11:22:50;21.51;81.10
77523;SHT31;66637;-29.628;-49.938;2023-05-27T11:25:21;21.54;81.06
77523;SHT31;66637;-29.628;-49.938;2023-05-27T11:27:52;21.51;80.75
77523;SHT31;66637;-29.628;-49.938;2023-05-27T11:30:24;21.55;80.24
77523;SHT31;66637;-29.628;-49.938;2023-05-27T11:33:02;21.58;79.87
77523;SHT31;66637;-29.628;-49.938;2023-05-27T11:35:38;21.57;79.31
77523;SHT31;66637;-29.628;-49.938;2023-05-27T11:38:27;21.55;78.96
77523;SHT31;66637;-29.628;-49.938;2023-05-27T11:41:08;21.48;79.28
77523;SHT31;66637;-29.628;-49.938;2023-05-27T11:44:11;21.54;79.11
77523;SHT31;66637;-29.628;-49.938;2023-05-27T11:46:44;21.47;79.98
77523;SHT31;66637;-29.628;-49.938;2023-05-27T11:49:18;21.46;79.36
77523;SHT31;66637;-29.628;-49.938;2023-05-27T11:51:49;21.46;79.31
77523;SHT31;66637;-29.628;-49.938;2023-05-27T11:54:29;21.50;79.08
77523;SHT31;66637;-29.628;-49.938;2023-05-27T11:57:07;21.54;79.03
77523;SHT31;66637;-29.628;-49.938;2023-05-27T11:59:42;21.53;79.46
77523;SHT31;66637;-29.628;-49.938;2023-05-27T12:02:13;21.48;79.14
77523;SHT31;66637;-29.628;-49.938;2023-05-27T12:04:44;21.47;79.36
77523;SHT31;66637;-29.628;-49.938;2023-05-27T12:07:16;21.48;79.50
77523;SHT31;66637;-29.628;-49.938;2023-05-27T12:09:48;21.53;79.69
77523;SHT31;66637;-29.628;-49.938;2023-05-27T12:12:20;21.57;79.82
77523;SHT31;66637;-29.628;-49.938;2023-05-27T12:14:50;21.57;80.02
77523;SHT31;66637;-29.628;-49.938;2023-05-27T12:17:35;21.57;79.82
77523;SHT31;66637;-29.628;-49.938;2023-05-27T12:20:06;21.55;78.93
77523;SHT31;66637;-29.628;-49.938;2023-05-27T12:22:38;21.60;79.56
77523;SHT31;66637;-29.628;-49.938;2023-05-27T12:25:10;21.64;79.28
77523;SHT31;66637;-29.628;-49.938;2023-05-27T12:27:41;21.65;79.08
77523;SHT31;66637;-29.628;-49.938;2023-05-27T12:30:11;21.67;78.28
77523;SHT31;66637;-29.628;-49.938;2023-05-27T12:32:42;21.73;78.58
77523;SHT31;66637;-29.628;-49.938;2023-05-27T12:35:13;21.81;78.30
77523;SHT31;66637;-29.628;-49.938;2023-05-27T12:37:43;21.97;77.92
77523;SHT31;66637;-29.628;-49.938;2023-05-27T12:40:14;22.06;78.30
77523;SHT31;66637;-29.628;-49.938;2023-05-27T12:42:45;22.16;77.58
77523;SHT31;66637;-29.628;-49.938;2023-05-27T12:45:15;22.21;77.72
77523;SHT31;66637;-29.628;-49.938;2023-05-27T12:47:58;22.23;76.88
77523;SHT31;66637;-29.628;-49.938;2023-05-27T12:50:41;22.32;77.13
77523;SHT31;66637;-29.628;-49.938;2023-05-27T12:53:12;22.39;76.87
77523;SHT31;66637;-29.628;-49.938;2023-05-27T12:55:43;22.36;77.43
77523;SHT31;66637;-29.628;-49.938;2023-05-27T12:58:14;22.42;76.87
77523;SHT31;66637;-29.628;-49.938;2023-05-27T13:00:45;22.33;75.96
77523;SHT31;66637;-29.628;-49.938;2023-05-27T13:03:16;22.41;76.66
77523;SHT31;66637;-29.628;-49.938;2023-05-27T13:05:47;22.56;76.46
77523;SHT31;66637;-29.628;-49.938;2023-05-27T13:08:22;22.64;76.17
77523;SHT31;66637;-29.628;-49.938;2023-05-27T13:10:54;22.73;76.01
77523;SHT31;66637;-29.628;-49.938;2023-05-27T13:13:24;22.86;74.98
77523;SHT31;66637;-29.628;-49.938;2023-05-27T13:15:55;23.10;74.96
77523;SHT31;66637;-29.628;-49.938;2023-05-27T13:18:28;23.14;75.27
77523;SHT31;66637;-29.628;-49.938;2023-05-27T13:20:58;23.17;74.88
77523;SHT31;66637;-29.628;-49.938;2023-05-27T13:23:29;23.28;73.93
77523;SHT31;66637;-29.628;-49.938;2023-05-27T13:26:00;23.47;73.80
77523;SHT31;66637;-29.628;-49.938;2023-05-27T13:28:40;23.61;73.02
77523;SHT31;66637;-29.628;-49.938;2023-05-27T13:31:16;23.69;72.36
77523;SHT31;66637;-29.628;-49.938;2023-05-27T13:33:48;23.67;71.84
77523;SHT31;66637;-29.628;-49.938;2023-05-27T13:36:18;23.72;72.13
77523;SHT31;66637;-29.628;-49.938;2023-05-27T13:38:50;23.59;71.36
77523;SHT31;66637;-29.628;-49.938;2023-05-27T13:41:20;23.55;71.51
77523;SHT31;66637;-29.628;-49.938;2023-05-27T13:43:50;23.51;71.22
77523;SHT31;66637;-29.628;-49.938;2023-05-27T13:46:22;23.58;72.21
77523;SHT31;66637;-29.628;-49.938;2023-05-27T13:48:52;23.51;70.99
77523;SHT31;66637;-29.628;-49.938;2023-05-27T13:51:25;23.41;70.86
77523;SHT31;66637;-29.628;-49.938;2023-05-27T13:53:56;23.43;71.36
77523;SHT31;66637;-29.628;-49.938;2023-05-27T13:56:27;23.40;71.75
77523;SHT31;66637;-29.628;-49.938;2023-05-27T13:58:59;23.43;71.81
77523;SHT31;66637;-29.628;-49.938;2023-05-27T14:01:32;23.44;71.92
77523;SHT31;66637;-29.628;-49.938;2023-05-27T14:04:04;23.43;72.35
77523;SHT31;66637;-29.628;-49.938;2023-05-27T14:06:34;23.40;71.78
77523;SHT31;66637;-29.628;-49.938;2023-05-27T14:09:05;23.41;71.75
77523;SHT31;66637;-29.628;-49.938;2023-05-27T14:11:36;23.54;71.80
77523;SHT31;66637;-29.628;-49.938;2023-05-27T14:14:07;23.57;70.52
77523;SHT31;66637;-29.628;-49.938;2023-05-27T14:16:37;23.62;70.45
77523;SHT31;66637;-29.628;-49.938;2023-05-27T14:19:09;23.69;70.52
77523;SHT31;66637;-29.628;-49.938;2023-05-27T14:21:39;23.75;70.70
77523;SHT31;66637;-29.628;-49.938;2023-05-27T14:24:13;23.82;70.48
77523;SHT31;66637;-29.628;-49.938;2023-05-27T14:26:43;23.88;70.04
77523;SHT31;66637;-29.628;-49.938;2023-05-27T14:29:14;23.89;69.53
77523;SHT31;66637;-29.628;-49.938;2023-05-27T14:31:46;23.88;68.40
77523;SHT31;66637;-29.628;-49.938;2023-05-27T14:34:18;23.86;68.05
77523;SHT31;66637;-29.628;-49.938;2023-05-27T14:36:48;23.81;69.31
77523;SHT31;66637;-29.628;-49.938;2023-05-27T14:39:20;23.78;69.20
77523;SHT31;66637;-29.628;-49.938;2023-05-27T14:41:51;23.72;69.49
77523;SHT31;66637;-29.628;-49.938;2023-05-27T14:44:22;23.74;69.21
77523;SHT31;66637;-29.628;-49.938;2023-05-27T14:46:53;23.88;69.43
77523;SHT31;66637;-29.628;-49.938;2023-05-27T14:49:29;23.98;68.90
77523;SHT31;66637;-29.628;-49.938;2023-05-27T14:52:12;24.09;68.42
77523;SHT31;66637;-29.628;-49.938;2023-05-27T14:54:43;24.05;67.26
77523;SHT31;66637;-29.628;-49.938;2023-05-27T14:57:18;24.15;69.10
77523;SHT31;66637;-29.628;-49.938;2023-05-27T15:00:07;23.96;67.69
77523;SHT31;66637;-29.628;-49.938;2023-05-27T15:02:48;23.90;68.54
77523;SHT31;66637;-29.628;-49.938;2023-05-27T15:05:20;23.88;68.23
77523;SHT31;66637;-29.628;-49.938;2023-05-27T15:08:02;23.82;68.02
77523;SHT31;66637;-29.628;-49.938;2023-05-27T15:10:45;23.75;68.55
77523;SHT31;66637;-29.628;-49.938;2023-05-27T15:13:27;23.71;69.05
77523;SHT31;66637;-29.628;-49.938;2023-05-27T15:16:01;23.69;68.69
77523;SHT31;66637;-29.628;-49.938;2023-05-27T15:18:41;23.89;69.74
77523;SHT31;66637;-29.628;-49.938;2023-05-27T15:21:13;23.76;67.75
77523;SHT31;66637;-29.628;-49.938;2023-05-27T15:23:48;23.74;67.75
77523;SHT31;66637;-29.628;-49.938;2023-05-27T15:26:35;23.85;66.69
77523;SHT31;66637;-29.628;-49.938;2023-05-27T15:29:09;23.86;67.38
77523;SHT31;66637;-29.628;-49.938;2023-05-27T15:31:55;23.92;66.72
77523;SHT31;66637;-29.628;-49.938;2023-05-27T15:34:42;23.95;66.27
77523;SHT31;66637;-29.628;-49.938;2023-05-27T15:37:18;23.96;65.37
77523;SHT31;66637;-29.628;-49.938;2023-05-27T15:39:50;24.06;64.92
77523;SHT31;66637;-29.628;-49.938;2023-05-27T15:42:23;24.18;64.91
77523;SHT31;66637;-29.628;-49.938;2023-05-27T15:45:21;24.37;64.39
77523;SHT31;66637;-29.628;-49.938;2023-05-27T15:48:09;24.57;64.62
77523;SHT31;66637;-29.628;-49.938;2023-05-27T15:51:08;24.74;63.90
77523;SHT31;66637;-29.628;-49.938;2023-05-27T15:53:39;24.84;62.72
77523;SHT31;66637;-29.628;-49.938;2023-05-27T15:56:13;24.90;62.04
77523;SHT31;66637;-29.628;-49.938;2023-05-27T15:58:44;24.94;62.52
77523;SHT31;66637;-29.628;-49.938;2023-05-27T16:01:16;24.63;62.07
77523;SHT31;66637;-29.628;-49.938;2023-05-27T16:03:46;24.50;63.49
77523;SHT31;66637;-29.628;-49.938;2023-05-27T16:06:16;24.39;63.60
77523;SHT31;66637;-29.628;-49.938;2023-05-27T16:08:48;24.60;63.77
77523;SHT31;66637;-29.628;-49.938;2023-05-27T16:11:22;24.69;63.75
77523;SHT31;66637;-29.628;-49.938;2023-05-27T16:13:54;24.67;62.25
77523;SHT31;66637;-29.628;-49.938;2023-05-27T16:16:25;24.57;62.27
77523;SHT31;66637;-29.628;-49.938;2023-05-27T16:18:56;24.52;62.57
77523;SHT31;66637;-29.628;-49.938;2023-05-27T16:21:27;24.67;63.03
77523;SHT31;66637;-29.628;-49.938;2023-05-27T16:23:59;24.66;62.55
77523;SHT31;66637;-29.628;-49.938;2023-05-27T16:26:35;24.44;63.59
77523;SHT31;66637;-29.628;-49.938;2023-05-27T16:29:10;24.40;64.85
77523;SHT31;66637;-29.628;-49.938;2023-05-27T16:31:42;24.47;64.07
77523;SHT31;66637;-29.628;-49.938;2023-05-27T16:34:14;24.60;63.81
77523;SHT31;66637;-29.628;-49.938;2023-05-27T16:36:44;24.57;64.14
77523;SHT31;66637;-29.628;-49.938;2023-05-27T16:39:16;24.52;64.06
77523;SHT31;66637;-29.628;-49.938;2023-05-27T16:41:46;24.57;63.51
77523;SHT31;66637;-29.628;-49.938;2023-05-27T16:44:17;24.60;63.63
77523;SHT31;66637;-29.628;-49.938;2023-05-27T16:46:50;24.40;63.43